Time;durP1;ratioP1;P1;durP2;ratioP2;P2;SDS_P1;SDS_P2;PMS_P1;PMS_P2;Temp;Humidity;BMP_temperature;BMP_pressure;BME280_temperature;BME280_humidity;BME280_pressure;Samples;Min_cycle;Max_cycle;Signal;HPM_P1;HPM_P2
2023/12/19 00:03:39;;;;;;;;;;;;;;;;;;;;;
2023/12/19 00:07:03;;;;;;;57.70;27.40;;;;;;;0.82;89.07;100874.39;133898;1302;23006;-87
2023/12/19 00:10:37;;;;;;;56.90;28.60;;;;;;;0.83;89.50;100852.72;133806;1300;22392;-88
2023/12/19 00:13:46;;;;;;;58.10;28.10;;;;;;;0.84;89.50;100841.87;133800;1301;22304;-88
2023/12/19 00:16:58;;;;;;;;;;;;;;;;;;;;;
2023/12/19 00:20:22;;;;;;;53.50;26.30;;;;;;;0.75;89.28;100810.67;133823;1307;22692;-89
2023/12/19 00:24:17;;;;;;;;;;;;;;;;;;;;;
2023/12/19 00:27:34;;;;;;;50.00;24.80;;;;;;;0.70;89.39;100823.02;134284;1301;22241;-88
2023/12/19 00:31:20;;;;;;;;;;;;;;;;;;;;;
2023/12/19 00:35:34;;;;;;;;;;;;;;;;;;;;;
2023/12/19 00:39:39;;;;;;;48.60;23.70;;;;;;;0.64;89.97;100835.50;134020;1298;22234;-88
2023/12/19 00:43:57;;;;;;;;;;;;;;;;;;;;;
2023/12/19 00:52:27;;;;;;;;;;;;;;;;;;;;;
2023/12/19 00:56:33;;;;;;;50.50;26.70;;;;;;;0.83;90.21;100879.91;134281;1297;22420;-88
2023/12/19 01:00:31;;;;;;;;;;;;;;;;;;;;;
2023/12/19 01:04:31;;;;;;;40.70;22.50;;;;;;;0.73;90.08;100877.52;134269;1299;22289;-88
2023/12/19 01:07:47;;;;;;;45.70;22.20;;;;;;;0.72;90.18;100875.83;134234;1298;22218;-88
2023/12/19 01:10:48;;;;;;;43.70;22.80;;;;;;;0.73;90.32;100877.15;134284;1304;22263;-84
2023/12/19 01:13:50;;;;;;;42.80;23.20;;;;;;;0.76;90.39;100875.23;134078;1300;22259;-87
2023/12/19 01:16:57;;;;;;;47.30;24.80;;;;;;;0.81;90.51;100861.41;134019;1300;22393;-88
2023/12/19 01:20:12;;;;;;;44.20;20.70;;;;;;;0.83;90.59;100857.41;134284;1304;23090;-88
2023/12/19 01:23:26;;;;;;;43.40;22.40;;;;;;;0.82;90.48;100851.24;134161;1304;22403;-87
2023/12/19 01:26:39;;;;;;;42.70;21.80;;;;;;;0.77;90.49;100851.69;134269;1304;22256;-89
2023/12/19 01:29:47;;;;;;;47.00;23.60;;;;;;;0.75;90.82;100850.23;134120;1304;22495;-88
2023/12/19 01:34:14;;;;;;;44.60;22.90;;;;;;;0.76;91.01;100849.48;133927;1301;22311;-87
2023/12/19 01:37:52;;;;;;;;;;;;;;;;;;;;;
2023/12/19 01:42:07;;;;;;;;;;;;;;;;;;;;;
2023/12/19 01:46:19;;;;;;;;;;;;;;;;;;;;;
2023/12/19 01:49:43;;;;;;;43.00;21.60;;;;;;;0.92;91.23;100810.77;134231;1298;22368;-87
2023/12/19 01:52:56;;;;;;;37.30;21.10;;;;;;;0.95;91.35;100800.32;134152;1304;22363;-87
2023/12/19 01:56:04;;;;;;;39.10;20.20;;;;;;;0.98;91.40;100796.33;133969;1298;22424;-87
2023/12/19 01:59:10;;;;;;;41.10;20.90;;;;;;;1.02;91.47;100797.30;134100;1304;22270;-86
2023/12/19 02:02:18;;;;;;;36.40;20.10;;;;;;;1.04;91.38;100797.18;134244;1301;22474;-87
2023/12/19 02:05:28;;;;;;;40.00;20.40;;;;;;;1.05;91.41;100775.55;134093;1299;23161;-86
2023/12/19 02:08:53;;;;;;;35.80;19.40;;;;;;;1.08;91.51;100784.94;133880;1304;22237;-87
2023/12/19 02:13:41;;;;;;;35.10;18.60;;;;;;;1.14;91.71;100782.12;134159;1305;22428;-86
2023/12/19 02:17:17;;;;;;;39.70;20.20;;;;;;;1.21;91.76;100789.20;133920;1305;22436;-86
2023/12/19 02:21:12;;;;;;;;;;;;;;;;;;;;;
2023/12/19 02:25:09;;;;;;;;;;;;;;;;;;;;;
2023/12/19 02:33:23;;;;;;;39.30;21.10;;;;;;;1.39;91.72;100781.55;134169;1298;22396;-86
2023/12/19 02:37:16;;;;;;;;;;;;;;;;;;;;;
2023/12/19 02:41:18;;;;;;;;;;;;;;;;;;;;;
2023/12/19 02:45:30;;;;;;;;;;;;;;;;;;;;;
2023/12/19 02:49:25;;;;;;;42.60;21.20;;;;;;;1.62;91.49;100753.79;133647;1298;22495;-87
2023/12/19 02:53:31;;;;;;;;;;;;;;;;;;;;;
2023/12/19 02:57:39;;;;;;;;;;;;;;;;;;;;;
2023/12/19 03:02:08;;;;;;;;;;;;;;;;;;;;;
2023/12/19 03:06:28;;;;;;;;;;;;;;;;;;;;;
2023/12/19 03:10:08;;;;;;;;;;;;;;;;;;;;;
2023/12/19 03:14:32;;;;;;;;;;;;;;;;;;;;;
2023/12/19 03:18:23;;;;;;;;;;;;;;;;;;;;;
2023/12/19 03:22:09;;;;;;;20.40;12.40;;;;;;;2.20;90.55;100721.71;134058;1298;23579;-86
2023/12/19 03:25:41;;;;;;;21.80;11.00;;;;;;;2.24;90.65;100714.81;134111;1291;22362;-84
2023/12/19 03:28:56;;;;;;;;;;;;;;;;;;;;;
2023/12/19 03:32:03;;;;;;;22.40;11.50;;;;;;;2.35;90.35;100711.85;134145;1298;23346;-86
2023/12/19 03:35:05;;;;;;;25.00;12.10;;;;;;;2.38;90.25;100707.47;134195;1298;23742;-85
2023/12/19 03:38:12;;;;;;;25.50;14.10;;;;;;;2.41;90.06;100714.31;134111;1298;22424;-84
2023/12/19 03:41:13;;;;;;;38.50;19.50;;;;;;;2.42;90.09;100710.71;134245;1304;22369;-87
2023/12/19 03:44:13;;;;;;;;;;;;;;;2.43;89.94;100711.67;134123;1298;22471;-86
2023/12/19 03:47:28;;;;;;;36.50;18.40;;;;;;;2.42;89.92;100712.61;134275;1297;22360;-85
2023/12/19 03:50:31;;;;;;;39.50;18.70;;;;;;;2.39;89.75;100711.77;134135;1298;22387;-85
2023/12/19 03:53:33;;;;;;;24.70;14.20;;;;;;;2.36;89.80;100705.54;134169;1298;22451;-85
2023/12/19 03:56:35;;;;;;;26.60;14.20;;;;;;;2.33;89.78;100709.02;134152;1298;22198;-84
2023/12/19 03:59:48;;;;;;;29.20;14.70;;;;;;;2.29;89.76;100713.48;134217;1300;22241;-86
2023/12/19 04:03:09;;;;;;;26.00;14.20;;;;;;;2.27;89.90;100710.17;134193;1299;23137;-85
2023/12/19 04:06:12;;;;;;;28.00;14.10;;;;;;;2.24;89.49;100709.92;133549;1301;22319;-86
2023/12/19 04:09:16;;;;;;;26.80;14.60;;;;;;;2.23;89.70;100718.39;133406;1304;23119;-85
2023/12/19 04:12:16;;;;;;;28.00;14.10;;;;;;;2.23;89.36;100730.98;133390;1304;22309;-85
2023/12/19 04:15:23;;;;;;;25.30;14.50;;;;;;;2.21;89.38;100731.60;133540;1304;22415;-86
2023/12/19 04:18:29;;;;;;;28.10;15.50;;;;;;;2.20;89.14;100732.19;133426;1303;22244;-86
2023/12/19 04:21:49;;;;;;;32.10;16.80;;;;;;;2.18;89.17;100727.61;133446;1309;22249;-86
2023/12/19 04:25:52;;;;;;;;;;;;;;;;;;;;;
2023/12/19 04:29:56;;;;;;;;;;;;;;;;;;;;;
2023/12/19 04:33:10;;;;;;;40.50;19.70;;;;;;;2.12;88.86;100717.03;133565;1309;22382;-86
2023/12/19 04:36:15;;;;;;;44.40;21.00;;;;;;;2.11;88.66;100724.45;133535;1304;23114;-86
2023/12/19 04:39:16;;;;;;;32.20;18.20;;;;;;;2.08;88.76;100719.01;134040;1297;23047;-84
2023/12/19 04:42:27;;;;;;;66.10;29.20;;;;;;;2.08;88.80;100710.32;134108;1304;23343;-84
2023/12/19 04:45:51;;;;;;;71.30;32.20;;;;;;;2.05;88.85;100694.63;134137;1297;22207;-86
2023/12/19 04:49:01;;;;;;;59.10;27.60;;;;;;;2.00;88.79;100693.00;133821;1299;22252;-86
2023/12/19 04:52:44;;;;;;;;;;;;;;;;;;;;;
2023/12/19 04:56:36;;;;;;;;;;;;;;;;;;;;;
2023/12/19 04:59:53;;;;;;;35.60;17.50;;;;;;;2.03;88.82;100705.73;133967;1298;22141;-86
2023/12/19 05:03:03;;;;;;;30.90;15.20;;;;;;;2.06;88.75;100700.11;134057;1297;23007;-86
2023/12/19 05:06:21;;;;;;;;;;;;;;;;;;;;;
2023/12/19 05:09:27;;;;;;;26.50;13.40;;;;;;;2.15;88.61;100683.17;133992;1301;23126;-88
2023/12/19 05:12:30;;;;;;;31.30;15.40;;;;;;;2.20;88.64;100687.19;134175;1301;23086;-86
2023/12/19 05:15:32;;;;;;;25.10;12.40;;;;;;;2.23;88.58;100674.04;134240;1298;23107;-87
2023/12/19 05:18:47;;;;;;;19.20;9.10;;;;;;;2.29;88.27;100677.19;131622;1304;3128583;-87
2023/12/19 05:21:50;;;;;;;14.50;8.00;;;;;;;2.38;88.16;100678.66;133876;1305;23674;-87
2023/12/19 05:24:57;;;;;;;19.30;10.70;;;;;;;2.44;87.89;100695.25;134310;1304;22280;-86
2023/12/19 05:29:01;;;;;;;22.00;12.20;;;;;;;2.46;87.75;100693.35;134062;1304;22891;-87
2023/12/19 05:32:17;;;;;;;34.60;15.90;;;;;;;2.46;87.65;100697.90;134139;1304;22244;-87
2023/12/19 05:35:30;;;;;;;31.60;16.00;;;;;;;2.41;87.52;100693.69;133861;1305;23356;-87
2023/12/19 05:38:40;;;;;;;29.60;16.10;;;;;;;2.40;87.49;100678.19;134221;1304;22469;-87
2023/12/19 05:41:47;;;;;;;36.70;18.00;;;;;;;2.40;87.30;100663.55;134086;1301;23244;-83
2023/12/19 05:44:52;;;;;;;42.70;18.20;;;;;;;2.41;87.13;100658.59;134178;1298;23258;-87
2023/12/19 05:48:20;;;;;;;29.90;13.60;;;;;;;2.40;87.06;100665.95;134115;1298;22448;-87
2023/12/19 05:51:43;;;;;;;27.50;11.30;;;;;;;2.41;86.63;100666.80;134196;1298;22387;-87
2023/12/19 05:54:44;;;;;;;25.70;10.20;;;;;;;2.39;86.39;100676.34;134102;1301;22532;-83
2023/12/19 05:57:46;;;;;;;20.10;9.40;;;;;;;2.37;86.08;100680.66;134200;1298;23080;-84
2023/12/19 06:00:48;;;;;;;21.40;10.90;;;;;;;2.33;85.91;100677.48;134222;1304;22481;-77
2023/12/19 06:03:49;;;;;;;24.30;11.70;;;;;;;2.26;85.76;100683.10;134225;1298;22417;-80
2023/12/19 06:06:57;;;;;;;;;;;;;;;2.16;85.70;100681.17;134195;1297;23772;-83
2023/12/19 06:09:58;;;;;;;20.80;10.00;;;;;;;2.00;85.45;100679.36;134190;1298;22476;-76
2023/12/19 06:13:07;;;;;;;17.00;10.00;;;;;;;1.91;85.71;100681.34;134235;1298;22846;-76
2023/12/19 06:16:39;;;;;;;;;;;;;;;;;;;;;
2023/12/19 06:19:43;;;;;;;19.90;10.00;;;;;;;1.71;86.00;100679.63;134178;1298;22424;-75
2023/12/19 06:22:44;;;;;;;20.60;10.10;;;;;;;1.68;85.98;100665.90;134101;1302;22442;-75
2023/12/19 06:25:44;;;;;;;20.30;9.40;;;;;;;1.63;86.18;100659.91;134161;1305;22392;-75
2023/12/19 06:28:47;;;;;;;13.30;8.50;;;;;;;1.53;86.14;100670.64;134193;1304;22532;-75
2023/12/19 06:31:48;;;;;;;18.60;9.50;;;;;;;1.43;86.03;100681.59;134146;1300;22892;-75
2023/12/19 06:34:49;;;;;;;15.70;9.00;;;;;;;1.36;86.30;100676.73;134167;1298;22246;-75
2023/12/19 06:37:49;;;;;;;;;;;;;;;1.33;86.47;100685.65;134222;1304;22520;-75
2023/12/19 06:40:50;;;;;;;19.60;9.80;;;;;;;1.30;86.57;100685.85;134074;1303;22503;-75
2023/12/19 06:43:51;;;;;;;22.10;10.40;;;;;;;1.23;86.51;100681.23;134064;1298;23125;-74
2023/12/19 06:46:52;;;;;;;15.90;9.30;;;;;;;1.19;86.71;100685.30;134134;1301;22385;-75
2023/12/19 06:49:58;;;;;;;15.70;8.70;;;;;;;1.15;86.83;100690.80;134141;1298;23157;-74
2023/12/19 06:52:59;;;;;;;29.00;18.20;;;;;;;1.09;86.92;100691.29;134078;1298;22504;-75
2023/12/19 06:56:22;;;;;;;37.00;19.60;;;;;;;1.05;86.93;100693.98;134073;1299;22451;-75
2023/12/19 06:59:35;;;;;;;38.20;18.70;;;;;;;1.05;87.32;100683.71;134169;1298;22289;-80
2023/12/19 07:02:36;;;;;;;37.30;20.50;;;;;;;1.07;87.27;100672.60;134131;1298;23482;-75
2023/12/19 07:05:47;;;;;;;33.10;17.60;;;;;;;1.10;87.49;100668.56;134138;1305;22497;-77
2023/12/19 07:08:50;;;;;;;30.90;15.60;;;;;;;1.13;87.41;100667.72;134153;1301;22261;-75
2023/12/19 07:11:53;;;;;;;25.90;14.60;;;;;;;1.12;87.34;100674.70;134173;1301;22367;-75
2023/12/19 07:14:57;;;;;;;27.90;15.20;;;;;;;1.12;87.47;100671.23;134131;1292;22279;-76
2023/12/19 07:17:58;;;;;;;23.10;12.60;;;;;;;1.15;87.56;100671.06;134122;1298;22367;-76
2023/12/19 07:20:58;;;;;;;16.60;10.40;;;;;;;1.18;87.43;100669.34;134170;1295;22379;-76
2023/12/19 07:23:59;;;;;;;20.60;12.00;;;;;;;1.20;87.40;100676.01;134151;1298;23233;-76
2023/12/19 07:27:03;;;;;;;23.10;12.40;;;;;;;1.27;87.68;100674.20;133936;1298;22354;-76
2023/12/19 07:30:08;;;;;;;24.10;11.40;;;;;;;1.36;87.66;100663.52;134109;1298;22522;-76
2023/12/19 07:33:13;;;;;;;16.50;11.00;;;;;;;1.45;87.67;100658.23;134213;1298;22423;-76
2023/12/19 07:36:14;;;;;;;19.40;11.30;;;;;;;1.58;87.86;100652.38;134204;1304;22409;-76
2023/12/19 07:39:15;;;;;;;21.00;13.20;;;;;;;1.69;87.55;100655.02;134222;1301;22329;-76
2023/12/19 07:42:17;;;;;;;25.90;17.40;;;;;;;1.82;87.69;100653.88;134195;1298;22434;-76
2023/12/19 07:45:18;;;;;;;19.90;9.60;;;;;;;2.05;87.80;100652.36;134239;1292;22466;-76
2023/12/19 07:48:19;;;;;;;16.20;8.30;;;;;;;2.25;87.97;100651.59;134185;1304;22257;-76
2023/12/19 07:51:24;;;;;;;15.10;7.70;;;;;;;2.35;87.43;100646.40;134180;1299;23002;-75
2023/12/19 07:54:25;;;;;;;16.10;9.20;;;;;;;2.44;87.48;100643.20;134184;1304;22418;-75
2023/12/19 07:57:26;;;;;;;13.10;8.10;;;;;;;2.62;87.21;100644.80;134203;1297;22356;-75
2023/12/19 08:00:27;;;;;;;15.20;8.70;;;;;;;2.87;87.37;100635.40;134147;1298;22380;-76
2023/12/19 08:03:28;;;;;;;19.30;10.20;;;;;;;3.15;87.47;100636.79;134208;1304;22201;-75
2023/12/19 08:06:29;;;;;;;20.10;8.20;;;;;;;3.41;86.91;100629.20;134226;1301;22408;-75
2023/12/19 08:09:30;;;;;;;18.80;9.50;;;;;;;3.69;86.82;100628.80;134242;1298;22602;-75
2023/12/19 08:12:31;;;;;;;12.60;7.20;;;;;;;4.00;86.70;100620.47;134223;1298;22844;-75
2023/12/19 08:15:32;;;;;;;13.30;7.20;;;;;;;4.32;86.59;100625.28;134212;1298;23237;-74
2023/12/19 08:18:43;;;;;;;;;;;;;;;;;;;;;
2023/12/19 08:21:48;;;;;;;12.40;6.80;;;;;;;4.99;85.84;100624.23;134226;1299;22283;-75
2023/12/19 08:24:50;;;;;;;13.40;7.40;;;;;;;5.28;85.76;100620.91;134219;1298;22445;-74
2023/12/19 08:27:51;;;;;;;12.80;7.20;;;;;;;5.56;85.14;100617.62;134332;1300;22505;-74
2023/12/19 08:30:55;;;;;;;10.50;6.30;;;;;;;5.77;84.80;100611.56;134238;1304;22498;-74
2023/12/19 08:33:56;;;;;;;9.80;6.30;;;;;;;5.95;84.44;100608.59;134227;1301;22873;-75
2023/12/19 08:36:57;;;;;;;11.20;6.60;;;;;;;6.17;84.51;100604.14;134231;1304;22271;-75
2023/12/19 08:40:02;;;;;;;13.00;7.20;;;;;;;6.44;84.38;100603.68;134282;1301;22385;-74
2023/12/19 08:43:03;;;;;;;11.40;6.10;;;;;;;6.76;83.62;100598.27;134271;1296;22430;-75
2023/12/19 08:46:05;;;;;;;9.40;6.00;;;;;;;7.15;83.69;100601.85;134317;1304;23043;-74
2023/12/19 08:49:17;;;;;;;9.70;6.30;;;;;;;7.53;83.35;100607.34;134180;1304;22216;-75
2023/12/19 08:52:22;;;;;;;9.90;6.00;;;;;;;7.95;82.65;100599.88;134297;1304;22583;-74
2023/12/19 08:55:23;;;;;;;11.50;6.20;;;;;;;8.41;82.17;100588.11;134191;1304;22191;-74
2023/12/19 08:58:23;;;;;;;;;;;;;;;8.83;80.84;100575.77;134245;1304;22460;-74
2023/12/19 09:01:24;;;;;;;10.90;5.50;;;;;;;9.13;79.63;100563.98;134315;1298;22423;-74
2023/12/19 09:04:25;;;;;;;11.80;6.60;;;;;;;9.25;77.26;100552.73;134252;1301;22460;-74
2023/12/19 09:07:25;;;;;;;10.90;5.80;;;;;;;9.12;75.33;100540.06;133903;1298;24429;-74
2023/12/19 09:10:26;;;;;;;;;;;;;;;8.87;72.76;100525.30;134052;1298;22478;-74
2023/12/19 09:13:29;;;;;;;12.00;5.30;;;;;;;8.81;72.31;100510.35;134043;1290;22335;-74
2023/12/19 09:16:33;;;;;;;11.50;6.10;;;;;;;8.87;72.62;100500.62;134085;1304;22209;-74
2023/12/19 09:19:37;;;;;;;11.90;6.20;;;;;;;8.91;71.36;100500.77;134067;1291;22357;-74
2023/12/19 09:22:44;;;;;;;9.60;5.40;;;;;;;9.03;71.82;100499.39;134044;1305;22370;-74
2023/12/19 09:25:45;;;;;;;10.90;5.90;;;;;;;9.23;70.37;100493.40;134073;1304;22299;-75
2023/12/19 09:28:54;;;;;;;11.00;5.90;;;;;;;9.33;70.17;100491.20;134038;1298;22389;-74
2023/12/19 09:32:07;;;;;;;13.70;6.60;;;;;;;9.38;69.60;100495.48;134081;1305;22436;-74
2023/12/19 09:35:08;;;;;;;12.20;6.30;;;;;;;9.54;69.68;100485.14;133953;1304;22489;-75
2023/12/19 09:38:09;;;;;;;10.40;6.30;;;;;;;9.76;69.53;100479.41;134086;1299;22397;-74
2023/12/19 09:41:10;;;;;;;14.40;5.70;;;;;;;9.92;69.09;100476.56;134038;1298;22371;-75
2023/12/19 09:44:22;;;;;;;12.00;6.20;;;;;;;10.05;68.83;100472.81;134072;1298;22432;-74
2023/12/19 09:47:52;;;;;;;11.10;5.50;;;;;;;10.24;67.33;100465.06;134087;1305;22217;-74
2023/12/19 09:51:00;;;;;;;10.00;5.40;;;;;;;10.26;66.48;100461.85;134045;1298;22438;-74
2023/12/19 09:54:12;;;;;;;;;;;;;;;;;;;;;
2023/12/19 09:57:23;;;;;;;8.60;5.10;;;;;;;10.69;67.27;100446.28;134057;1298;22466;-74
2023/12/19 10:00:36;;;;;;;9.00;5.00;;;;;;;10.93;66.46;100443.76;133885;1301;22376;-74
2023/12/19 10:03:41;;;;;;;10.30;4.80;;;;;;;11.03;65.37;100441.20;134024;1298;22451;-74
2023/12/19 10:07:07;;;;;;;7.60;4.70;;;;;;;11.04;64.87;100443.66;134157;1298;23185;-74
2023/12/19 10:10:11;;;;;;;11.70;4.40;;;;;;;11.14;64.69;100440.83;134137;1298;22414;-74
2023/12/19 10:13:30;;;;;;;9.10;4.70;;;;;;;11.21;64.07;100442.17;134204;1305;22440;-74
2023/12/19 10:16:37;;;;;;;9.30;4.40;;;;;;;11.35;63.21;100437.78;134255;1299;22545;-74
2023/12/19 10:19:38;;;;;;;5.60;4.20;;;;;;;11.47;63.18;100431.64;134171;1304;22947;-74
2023/12/19 10:22:39;;;;;;;11.00;4.80;;;;;;;11.61;62.73;100427.54;134222;1301;22341;-74
2023/12/19 10:25:40;;;;;;;;;;;;;;;11.62;62.35;100420.86;134218;1298;22485;-75
2023/12/19 10:28:41;;;;;;;9.70;4.20;;;;;;;11.40;61.40;100417.39;134197;1298;22453;-74
2023/12/19 10:31:41;;;;;;;10.00;4.50;;;;;;;11.05;61.47;100409.45;134214;1301;22462;-74
2023/12/19 10:34:47;;;;;;;11.30;5.10;;;;;;;10.77;61.53;100400.83;134024;1298;23243;-75
2023/12/19 10:37:47;;;;;;;8.70;4.80;;;;;;;10.53;61.50;100391.33;134226;1302;22340;-74
2023/12/19 10:40:59;;;;;;;;;;;;;;;10.32;61.74;100381.28;134236;1298;22499;-74
2023/12/19 10:44:01;;;;;;;8.40;4.60;;;;;;;10.16;61.60;100371.08;134260;1301;22379;-74
2023/12/19 10:47:04;;;;;;;8.50;5.40;;;;;;;10.00;61.42;100362.84;134255;1294;22518;-74
2023/12/19 10:50:05;;;;;;;11.20;4.80;;;;;;;9.84;61.31;100366.08;134205;1304;22394;-74
2023/12/19 10:53:09;;;;;;;10.10;4.50;;;;;;;9.67;60.86;100366.50;134203;1298;23586;-73
2023/12/19 10:56:11;;;;;;;6.40;4.10;;;;;;;9.52;60.73;100364.89;134184;1298;22341;-74
2023/12/19 10:59:33;;;;;;;8.40;4.80;;;;;;;9.37;61.29;100355.70;134193;1299;22366;-74
2023/12/19 11:02:45;;;;;;;9.30;4.60;;;;;;;9.30;61.63;100345.19;134183;1298;23178;-74
2023/12/19 11:05:50;;;;;;;13.90;4.80;;;;;;;9.21;61.49;100339.36;134147;1298;22861;-73
2023/12/19 11:08:55;;;;;;;10.90;4.90;;;;;;;9.13;60.97;100329.77;134144;1298;22250;-75
2023/12/19 11:11:58;;;;;;;9.00;5.40;;;;;;;9.04;61.33;100320.56;134089;1298;22261;-75
2023/12/19 11:14:59;;;;;;;11.90;6.60;;;;;;;8.99;60.52;100315.81;134061;1298;22276;-74
2023/12/19 11:18:10;;;;;;;11.10;5.50;;;;;;;8.94;61.10;100307.48;134124;1298;22383;-75
2023/12/19 11:21:14;;;;;;;;;;;;;;;8.91;60.44;100299.38;134140;1294;22498;-74
2023/12/19 11:24:29;;;;;;;7.90;4.10;;;;;;;8.86;60.61;100295.39;134061;1298;22243;-74
2023/12/19 11:27:39;;;;;;;10.80;5.20;;;;;;;8.80;60.99;100296.63;134110;1298;23113;-74
2023/12/19 11:30:41;;;;;;;9.80;5.00;;;;;;;8.76;61.19;100292.42;134184;1303;23272;-74
2023/12/19 11:33:42;;;;;;;7.40;4.30;;;;;;;8.73;61.06;100284.07;134081;1298;22499;-74
2023/12/19 11:36:43;;;;;;;7.80;4.80;;;;;;;8.69;60.94;100279.53;134116;1299;23115;-74
2023/12/19 11:39:44;;;;;;;8.80;4.10;;;;;;;8.67;61.00;100275.00;134078;1301;23537;-74
2023/12/19 11:42:45;;;;;;;;;;;;;;;8.63;60.96;100274.67;134062;1298;22474;-74
2023/12/19 11:45:46;;;;;;;7.60;4.20;;;;;;;8.59;60.94;100260.27;133884;1300;22362;-74
2023/12/19 11:48:50;;;;;;;9.40;4.00;;;;;;;8.55;60.72;100255.89;134125;1298;22470;-74
2023/12/19 11:51:54;;;;;;;7.90;3.50;;;;;;;8.52;60.59;100247.48;134091;1298;24424;-74
2023/12/19 11:54:54;;;;;;;8.10;3.70;;;;;;;8.51;60.68;100238.98;133897;1298;22202;-74
2023/12/19 11:58:05;;;;;;;;;;;;;;;8.51;60.61;100241.11;134168;1298;23519;-74
2023/12/19 12:01:08;;;;;;;5.10;3.50;;;;;;;8.50;60.43;100240.48;134109;1298;22258;-74
2023/12/19 12:04:10;;;;;;;5.00;3.30;;;;;;;8.49;60.07;100235.46;134081;1301;23660;-74
2023/12/19 12:07:14;;;;;;;6.30;3.60;;;;;;;8.50;60.08;100231.36;134095;1301;23065;-74
2023/12/19 12:10:23;;;;;;;5.40;3.50;;;;;;;8.50;59.74;100240.50;134081;1298;23312;-74
2023/12/19 12:13:24;;;;;;;7.40;4.00;;;;;;;8.50;59.92;100232.23;133877;1301;22265;-74
2023/12/19 12:16:34;;;;;;;5.90;3.00;;;;;;;8.51;59.91;100228.08;134090;1298;22388;-74
2023/12/19 12:19:35;;;;;;;6.50;3.60;;;;;;;8.51;59.72;100223.81;134072;1298;22512;-74
2023/12/19 12:22:36;;;;;;;;;;;;;;;8.52;59.52;100218.65;134075;1298;22460;-74
2023/12/19 12:25:37;;;;;;;6.40;3.90;;;;;;;8.51;59.67;100212.14;134139;1298;22440;-74
2023/12/19 12:28:48;;;;;;;6.20;3.90;;;;;;;8.52;59.34;100213.70;134144;1298;22386;-74
2023/12/19 12:31:50;;;;;;;7.80;4.20;;;;;;;8.51;59.50;100207.61;134104;1298;22261;-74
2023/12/19 12:34:51;;;;;;;7.00;3.90;;;;;;;8.50;59.37;100201.91;134166;1298;22433;-74
2023/12/19 12:37:59;;;;;;;8.10;4.70;;;;;;;8.50;59.60;100196.92;134116;1304;22219;-74
2023/12/19 12:41:07;;;;;;;7.00;4.20;;;;;;;8.51;59.29;100186.63;134171;1304;22418;-74
2023/12/19 12:44:12;;;;;;;6.80;3.60;;;;;;;8.52;59.26;100170.86;134189;1298;22244;-74
2023/12/19 12:47:23;;;;;;;7.00;4.20;;;;;;;8.50;58.03;100158.35;134211;1298;22455;-74
2023/12/19 12:50:24;;;;;;;10.90;4.90;;;;;;;8.46;58.20;100149.35;134093;1290;22346;-74
2023/12/19 12:53:25;;;;;;;5.80;3.90;;;;;;;8.45;58.93;100145.31;134130;1298;22563;-74
2023/12/19 12:56:30;;;;;;;;;;;;;;;8.44;58.81;100152.27;134044;1298;23376;-74
2023/12/19 13:00:07;;;;;;;;;;;;;;;;;;;;;
2023/12/19 13:03:09;;;;;;;7.60;4.50;;;;;;;8.36;58.99;100146.89;133978;1301;23140;-74
2023/12/19 13:06:10;;;;;;;11.90;5.30;;;;;;;8.31;59.02;100154.08;134114;1298;22376;-74
2023/12/19 13:09:19;;;;;;;8.00;4.60;;;;;;;8.26;59.35;100149.60;134232;1298;22372;-74
2023/12/19 13:12:30;;;;;;;7.00;4.00;;;;;;;8.21;59.25;100138.83;134196;1298;22368;-75
2023/12/19 13:15:34;;;;;;;7.70;4.60;;;;;;;8.17;59.09;100131.61;134185;1304;23099;-74
2023/12/19 13:18:40;;;;;;;6.80;4.50;;;;;;;8.14;59.27;100125.73;134194;1299;23606;-74
2023/12/19 13:21:41;;;;;;;7.80;4.90;;;;;;;8.12;59.31;100121.03;134229;1301;22608;-74
2023/12/19 13:24:45;;;;;;;11.60;4.60;;;;;;;8.09;59.21;100114.39;134200;1298;22453;-74
2023/12/19 13:27:53;;;;;;;9.10;6.10;;;;;;;8.07;59.32;100112.80;134208;1298;23184;-74
2023/12/19 13:30:56;;;;;;;7.30;4.70;;;;;;;8.04;59.40;100110.15;134223;1298;22371;-74
2023/12/19 13:33:56;;;;;;;23.80;14.20;;;;;;;8.02;59.47;100096.26;134250;1298;22291;-74
2023/12/19 13:36:57;;;;;;;26.50;14.40;;;;;;;7.98;59.33;100072.67;134002;1298;23206;-74
2023/12/19 13:39:59;;;;;;;42.00;28.00;;;;;;;7.95;59.50;100065.46;134260;1301;23178;-74
2023/12/19 13:43:02;;;;;;;11.70;7.00;;;;;;;7.90;58.83;100051.55;134238;1298;22388;-74
2023/12/19 13:46:04;;;;;;;10.20;6.20;;;;;;;7.85;59.21;100051.42;134254;1298;22394;-74
2023/12/19 13:49:05;;;;;;;9.70;6.00;;;;;;;7.79;59.26;100055.68;134200;1285;22365;-74
2023/12/19 13:52:06;;;;;;;10.90;6.00;;;;;;;7.75;59.34;100051.69;134233;1299;22330;-74
2023/12/19 13:55:08;;;;;;;12.40;7.30;;;;;;;7.71;59.44;100049.09;134223;1298;23124;-74
2023/12/19 13:58:26;;;;;;;;;;;;;;;;;;;;;
2023/12/19 14:01:41;;;;;;;;;;;;;;;;;;;;;
2023/12/19 14:04:45;;;;;;;16.50;7.80;;;;;;;7.61;59.52;100042.36;134242;1298;23014;-74
2023/12/19 14:07:53;;;;;;;17.90;8.90;;;;;;;7.57;59.36;100042.52;134218;1289;22494;-74
2023/12/19 14:11:14;;;;;;;6.00;4.10;;;;;;;7.54;59.55;100053.45;134256;1298;22458;-74
2023/12/19 14:14:15;;;;;;;11.50;4.70;;;;;;;7.51;59.77;100068.16;134194;1298;22464;-74
2023/12/19 14:17:15;;;;;;;8.90;4.70;;;;;;;7.46;60.12;100068.41;134221;1304;22452;-74
2023/12/19 14:20:17;;;;;;;9.50;4.20;;;;;;;7.41;60.26;100069.04;134245;1304;23412;-74
2023/12/19 14:23:26;;;;;;;8.50;5.10;;;;;;;7.36;60.41;100067.10;134256;1298;22491;-74
2023/12/19 14:26:30;;;;;;;10.30;6.00;;;;;;;7.31;60.49;100067.05;134186;1298;22671;-74
2023/12/19 14:29:35;;;;;;;11.10;5.70;;;;;;;7.27;60.72;100064.48;134241;1299;22442;-74
2023/12/19 14:32:42;;;;;;;9.30;4.80;;;;;;;7.24;60.89;100062.32;134223;1298;22527;-74
2023/12/19 14:35:43;;;;;;;9.20;5.00;;;;;;;7.21;60.98;100057.15;134273;1297;22373;-74
2023/12/19 14:38:45;;;;;;;11.90;5.50;;;;;;;7.17;61.11;100057.25;134264;1297;22322;-74
2023/12/19 14:41:46;;;;;;;11.40;5.60;;;;;;;7.14;61.27;100051.92;134274;1298;23413;-74
2023/12/19 14:44:47;;;;;;;9.80;6.00;;;;;;;7.12;61.29;100038.26;134186;1299;22389;-74
2023/12/19 14:47:51;;;;;;;11.00;6.10;;;;;;;7.10;61.30;100034.63;134241;1304;22400;-74
2023/12/19 14:51:00;;;;;;;15.70;7.30;;;;;;;7.09;61.47;100032.23;134240;1298;22961;-77
2023/12/19 14:54:01;;;;;;;13.40;7.40;;;;;;;7.08;61.28;100017.02;134263;1298;22402;-74
2023/12/19 14:57:03;;;;;;;26.50;13.90;;;;;;;7.08;61.25;100001.88;134166;1298;22236;-73
2023/12/19 15:00:05;;;;;;;25.60;10.80;;;;;;;7.07;61.17;99983.70;134231;1298;22473;-73
2023/12/19 15:03:06;;;;;;;16.30;8.40;;;;;;;7.04;61.28;99998.38;134193;1298;22375;-73
2023/12/19 15:06:07;;;;;;;30.80;14.60;;;;;;;7.02;61.29;100004.61;134256;1298;22413;-73
2023/12/19 15:09:07;;;;;;;;;;;;;;;7.00;61.39;100005.95;134267;1298;22466;-73
2023/12/19 15:12:10;;;;;;;17.50;9.90;;;;;;;6.99;61.27;100008.19;134232;1296;22213;-73
2023/12/19 15:15:12;;;;;;;15.80;8.80;;;;;;;6.99;61.60;100001.91;134041;1299;23066;-73
2023/12/19 15:18:16;;;;;;;17.10;9.50;;;;;;;6.98;61.60;99998.05;134273;1297;23547;-74
2023/12/19 15:21:17;;;;;;;16.10;8.80;;;;;;;6.97;61.50;99997.10;134230;1298;23186;-73
2023/12/19 15:24:18;;;;;;;18.70;9.00;;;;;;;6.96;61.51;99995.78;134219;1298;22508;-74
2023/12/19 15:27:19;;;;;;;67.80;29.00;;;;;;;6.98;61.31;99989.36;134223;1298;22280;-73
2023/12/19 15:30:20;;;;;;;19.40;10.30;;;;;;;6.98;60.85;99988.44;134293;1298;23066;-74
2023/12/19 15:33:21;;;;;;;;;;;;;;;6.96;61.04;99995.98;134242;1292;22625;-73
2023/12/19 15:36:22;;;;;;;23.10;10.80;;;;;;;6.94;61.10;99996.88;134246;1298;23005;-74
2023/12/19 15:39:22;;;;;;;;;;;;;;;6.93;61.20;100004.56;134083;1298;22476;-73
2023/12/19 15:42:23;;;;;;;22.90;10.20;;;;;;;6.90;61.52;99995.67;134172;1289;22734;-73
2023/12/19 15:45:24;;;;;;;;;;;;;;;6.88;61.43;99989.19;134303;1298;22528;-73
2023/12/19 15:48:25;;;;;;;19.90;9.20;;;;;;;6.87;61.51;99981.69;134245;1292;22252;-74
2023/12/19 15:51:26;;;;;;;;;;;;;;;6.87;61.48;99979.61;134286;1298;22562;-74
2023/12/19 15:54:27;;;;;;;21.00;9.50;;;;;;;6.86;61.50;99978.64;134236;1298;22389;-74
2023/12/19 15:57:28;;;;;;;23.60;10.70;;;;;;;6.86;61.63;99975.30;134244;1297;22628;-73
2023/12/19 16:00:29;;;;;;;22.90;11.80;;;;;;;6.87;61.56;99974.52;134277;1297;22348;-73